createdAt,value
2023-04-02T00:01:29.013Z,68.25
2023-04-02T00:04:30.108Z,68.19
2023-04-02T00:07:31.234Z,68.29
2023-04-02T00:10:31.804Z,68.15
2023-04-02T00:13:29.764Z,68.15
2023-04-02T00:16:23.951Z,68.29
2023-04-02T00:19:19.736Z,68.28
2023-04-02T00:22:14.691Z,68.42
2023-04-02T00:25:14.125Z,68.21
2023-04-02T00:28:04.957Z,68.41
2023-04-02T00:30:56.227Z,68.29
2023-04-02T00:33:46.155Z,68.42
2023-04-02T00:36:36.899Z,68.38
2023-04-02T00:39:28.662Z,68.38
2023-04-02T00:42:20.586Z,68.48
2023-04-02T00:45:19.591Z,68.32
2023-04-02T00:48:25.899Z,68.29
2023-04-02T00:51:20.980Z,68.04
2023-04-02T00:54:15.768Z,68.30
2023-04-02T00:57:04.950Z,68.47
2023-04-02T01:00:01.257Z,68.29
2023-04-02T01:03:28.931Z,68.38
2023-04-02T01:06:19.248Z,68.58
2023-04-02T01:09:26.491Z,68.30
2023-04-02T01:12:34.357Z,68.62
2023-04-02T01:15:30.766Z,68.38
2023-04-02T01:18:46.391Z,68.70
2023-04-02T01:21:43.657Z,68.83
2023-04-02T01:24:34.737Z,68.83
2023-04-02T01:27:29.059Z,68.77
2023-04-02T01:30:20.810Z,68.66
2023-04-02T01:33:09.540Z,68.77
2023-04-02T01:36:08.149Z,68.91
2023-04-02T01:39:05.603Z,68.86
2023-04-02T01:42:03.929Z,68.84
2023-04-02T01:44:54.805Z,68.72
2023-04-02T01:47:46.291Z,68.69
2023-04-02T01:50:38.024Z,68.79
2023-04-02T01:53:30.788Z,68.83
2023-04-02T01:56:20.083Z,68.64
2023-04-02T01:59:11.345Z,68.61
2023-04-02T02:02:05.764Z,68.60
2023-04-02T02:04:59.480Z,68.33
2023-04-02T02:07:49.570Z,68.44
2023-04-02T02:10:41.138Z,68.42
2023-04-02T02:13:29.876Z,68.62
2023-04-02T02:16:20.416Z,68.58
2023-04-02T02:19:20.276Z,68.58
2023-04-02T02:22:18.529Z,68.49
2023-04-02T02:25:15.499Z,68.29
2023-04-02T02:28:08.916Z,68.37
2023-04-02T02:31:02.045Z,68.53
2023-04-02T02:33:53.849Z,68.42
2023-04-02T02:36:50.747Z,68.63
2023-04-02T02:39:44.663Z,68.32
2023-04-02T02:42:40.434Z,68.35
2023-04-02T02:45:34.849Z,68.34
2023-04-02T02:48:29.000Z,68.27
2023-04-02T02:51:24.658Z,68.59
2023-04-02T02:54:15.732Z,68.48
2023-04-02T02:57:11.139Z,68.46
2023-04-02T03:00:05.594Z,68.58
2023-04-02T03:02:58.156Z,68.56
2023-04-02T03:05:53.756Z,68.59
2023-04-02T03:08:46.509Z,68.63
2023-04-02T03:11:43.806Z,68.45
2023-04-02T03:14:44.210Z,68.63
2023-04-02T03:17:37.998Z,68.68
2023-04-02T03:20:38.314Z,68.48
2023-04-02T03:23:31.025Z,68.38
2023-04-02T03:26:24.416Z,68.34
2023-04-02T03:29:19.834Z,68.52
2023-04-02T03:32:15.961Z,68.22
2023-04-02T03:35:17.164Z,68.48
2023-04-02T03:38:13.080Z,68.50
2023-04-02T03:41:13.279Z,68.24
2023-04-02T03:44:08.088Z,68.21
2023-04-02T03:46:59.949Z,68.19
2023-04-02T03:49:58.818Z,68.17
2023-04-02T03:52:49.966Z,68.27
2023-04-02T03:55:41.868Z,68.21
2023-04-02T03:58:39.716Z,67.94
2023-04-02T04:01:34.864Z,68.17
2023-04-02T04:04:28.344Z,67.96
2023-04-02T04:07:24.094Z,68.02
2023-04-02T04:10:19.644Z,67.85
2023-04-02T04:13:12.403Z,67.77
2023-04-02T04:16:08.360Z,67.86
2023-04-02T04:19:05.497Z,67.97
2023-04-02T04:22:11.028Z,67.96
2023-04-02T04:25:03.903Z,68.02
2023-04-02T04:28:05.615Z,67.80
2023-04-02T04:31:02.890Z,67.96
2023-04-02T04:34:03.960Z,68.03
2023-04-02T04:37:02.120Z,68.02
2023-04-02T04:40:00.215Z,68.07
2023-04-02T04:42:54.094Z,68.19
2023-04-02T04:45:47.260Z,68.16
2023-04-02T04:48:48.232Z,68.19
2023-04-02T04:51:43.770Z,68.06
2023-04-02T04:54:33.236Z,68.11
2023-04-02T04:57:31.748Z,68.19
2023-04-02T05:00:27.812Z,68.31
2023-04-02T05:03:29.077Z,68.28
2023-04-02T05:06:33.377Z,68.20
2023-04-02T05:09:30.597Z,68.03
2023-04-02T05:12:28.137Z,68.37
2023-04-02T05:15:22.976Z,68.19
2023-04-02T05:18:27.221Z,68.40
2023-04-02T05:21:21.644Z,68.41
2023-04-02T05:24:38.402Z,68.45
2023-04-02T05:27:34.654Z,68.28
2023-04-02T05:30:53.056Z,68.34
2023-04-02T05:33:48.487Z,68.36
2023-04-02T05:36:39.585Z,68.57
2023-04-02T05:39:29.725Z,68.56
2023-04-02T05:42:24.809Z,68.67
2023-04-02T05:45:28.523Z,68.58
2023-04-02T05:48:23.109Z,68.64
2023-04-02T05:51:20.317Z,68.54
2023-04-02T05:54:23.641Z,68.88
2023-04-02T05:57:29.605Z,69.00
2023-04-02T06:00:47.610Z,68.93
2023-04-02T06:03:48.757Z,69.13
2023-04-02T06:06:52.418Z,69.11
2023-04-02T06:09:48.104Z,69.31
2023-04-02T06:12:42.074Z,69.39
2023-04-02T06:15:34.789Z,69.64
2023-04-02T06:18:31.278Z,69.61
2023-04-02T06:21:23.877Z,69.81
2023-04-02T06:24:19.345Z,69.71
2023-04-02T06:27:16.825Z,70.05
2023-04-02T06:30:16.377Z,70.35
2023-04-02T06:33:06.249Z,70.36
2023-04-02T06:36:00.683Z,70.61
2023-04-02T06:38:55.361Z,70.77
2023-04-02T06:41:46.048Z,70.86
2023-04-02T06:45:12.277Z,70.99
2023-04-02T06:48:17.107Z,71.25
2023-04-02T06:51:10.368Z,71.20
2023-04-02T06:54:00.061Z,71.63
2023-04-02T06:56:53.201Z,71.39
2023-04-02T06:59:57.238Z,71.47
2023-04-02T07:02:48.353Z,71.71
2023-04-02T07:05:37.289Z,71.65
2023-04-02T07:08:27.129Z,71.70
2023-04-02T07:11:18.237Z,71.73
2023-04-02T07:14:13.547Z,71.76
2023-04-02T07:17:03.010Z,71.75
2023-04-02T07:19:52.748Z,71.82
2023-04-02T07:22:42.632Z,72.15
2023-04-02T07:25:31.778Z,72.05
2023-04-02T07:28:22.659Z,72.07
2023-04-02T07:31:19.347Z,72.21
2023-04-02T07:34:08.806Z,72.10
2023-04-02T07:36:57.482Z,72.20
2023-04-02T07:39:46.252Z,72.38
2023-04-02T07:42:34.930Z,72.41
2023-04-02T07:45:23.608Z,72.49
2023-04-02T07:48:16.364Z,72.64
2023-04-02T07:51:06.034Z,73.09
2023-04-02T07:53:56.492Z,73.12
2023-04-02T07:56:45.393Z,73.14
2023-04-02T07:59:34.842Z,73.42
2023-04-02T08:02:24.404Z,73.65
2023-04-02T08:05:15.573Z,73.92
2023-04-02T08:08:04.547Z,73.69
2023-04-02T08:10:56.529Z,74.02
2023-04-02T08:13:45.443Z,74.18
2023-04-02T08:16:46.434Z,73.77
2023-04-02T08:19:44.408Z,74.18
2023-04-02T08:22:42.944Z,74.10
2023-04-02T08:25:31.628Z,74.14
2023-04-02T08:28:21.665Z,74.52
2023-04-02T08:31:11.081Z,74.62
2023-04-02T08:34:01.623Z,74.62
2023-04-02T08:36:50.609Z,74.76
2023-04-02T08:39:42.266Z,74.98
2023-04-02T08:42:38.738Z,74.85
2023-04-02T08:45:40.259Z,75.07
2023-04-02T08:48:31.894Z,75.09
2023-04-02T08:51:25.137Z,75.14
2023-04-02T08:54:20.490Z,75.08
2023-04-02T08:57:22.425Z,75.07
2023-04-02T09:00:27.463Z,75.17
2023-04-02T09:03:19.504Z,75.25
2023-04-02T09:06:14.290Z,74.90
2023-04-02T09:09:05.037Z,75.53
2023-04-02T09:11:56.348Z,75.24
2023-04-02T09:14:53.144Z,75.32
2023-04-02T09:17:53.110Z,75.56
2023-04-02T09:20:43.664Z,75.57
2023-04-02T09:23:33.298Z,75.27
2023-04-02T09:26:25.082Z,75.37
2023-04-02T09:29:41.780Z,75.34
2023-04-02T09:32:51.342Z,75.44
2023-04-02T09:35:56.479Z,75.43
2023-04-02T09:38:58.684Z,75.59
2023-04-02T09:41:59.041Z,75.47
2023-04-02T09:44:53.908Z,75.37
2023-04-02T09:47:43.456Z,75.41
2023-04-02T09:50:35.118Z,75.46
2023-04-02T09:53:34.490Z,75.72
2023-04-02T09:56:26.531Z,75.50
2023-04-02T09:59:17.908Z,75.76
2023-04-02T10:02:25.397Z,76.01
2023-04-02T10:05:30.073Z,75.76
2023-04-02T10:08:30.252Z,75.68
2023-04-02T10:11:22.990Z,75.90
2023-04-02T10:14:21.508Z,75.57
2023-04-02T10:17:16.693Z,75.79
2023-04-02T10:20:18.675Z,75.57
2023-04-02T10:23:16.767Z,75.82
2023-04-02T10:26:20.470Z,75.68
2023-04-02T10:29:21.406Z,75.80
2023-04-02T10:32:15.775Z,75.79
2023-04-02T10:35:11.453Z,75.53
2023-04-02T10:38:28.539Z,75.68
2023-04-02T10:41:44.591Z,75.86
2023-04-02T10:44:43.940Z,75.85
2023-04-02T10:47:41.552Z,75.54
2023-04-02T10:50:37.602Z,75.16
2023-04-02T10:53:38.179Z,74.93
2023-04-02T10:56:29.786Z,74.95
2023-04-02T10:59:26.131Z,74.60
2023-04-02T11:02:32.288Z,74.09
2023-04-02T11:05:29.220Z,74.52
2023-04-02T11:08:21.886Z,74.09
2023-04-02T11:11:15.609Z,74.01
2023-04-02T11:14:11.557Z,73.58
2023-04-02T11:17:04.274Z,73.92
2023-04-02T11:19:55.093Z,73.63
2023-04-02T11:22:44.554Z,73.76
2023-04-02T11:25:33.498Z,73.55
2023-04-02T11:28:29.491Z,73.63
2023-04-02T11:31:21.958Z,73.49
2023-04-02T11:34:17.150Z,73.46
2023-04-02T11:37:10.424Z,73.67
2023-04-02T11:40:00.564Z,74.04
2023-04-02T11:42:51.300Z,73.68
2023-04-02T11:45:55.350Z,73.86
2023-04-02T11:48:46.162Z,73.60
2023-04-02T11:51:56.615Z,73.68
2023-04-02T11:55:01.339Z,74.11
2023-04-02T11:58:20.928Z,74.21
2023-04-02T12:01:46.225Z,74.42
2023-04-02T12:05:04.280Z,74.36
2023-04-02T12:08:07.918Z,74.81
2023-04-02T12:10:59.595Z,74.94
2023-04-02T12:13:52.858Z,75.22
2023-04-02T12:16:42.471Z,75.33
2023-04-02T12:19:32.866Z,75.58
2023-04-02T12:22:24.847Z,75.66
2023-04-02T12:25:29.209Z,75.88
2023-04-02T12:28:22.894Z,75.95
2023-04-02T12:31:16.616Z,75.92
2023-04-02T12:34:06.292Z,75.81
2023-04-02T12:36:59.564Z,76.19
2023-04-02T12:39:55.295Z,76.10
2023-04-02T12:42:46.723Z,76.14
2023-04-02T12:45:36.632Z,76.10
2023-04-02T12:48:28.281Z,76.07
2023-04-02T12:51:17.700Z,75.57
2023-04-02T12:54:08.341Z,75.82
2023-04-02T12:57:37.982Z,75.92
2023-04-02T13:00:34.862Z,75.79
2023-04-02T13:03:23.841Z,75.20
2023-04-02T13:06:24.820Z,75.16
2023-04-02T13:09:31.304Z,75.46
2023-04-02T13:12:29.905Z,74.94
2023-04-02T13:15:23.358Z,74.55
2023-04-02T13:18:22.325Z,74.30
2023-04-02T13:21:28.570Z,74.30
2023-04-02T13:24:20.242Z,74.01
2023-04-02T13:27:12.173Z,74.04
2023-04-02T13:30:09.490Z,73.90
2023-04-02T13:32:59.833Z,73.51
2023-04-02T13:35:49.962Z,73.34
2023-04-02T13:38:39.394Z,73.46
2023-04-02T13:41:30.306Z,73.28
2023-04-02T13:44:23.061Z,73.21
2023-04-02T13:47:15.317Z,72.55
2023-04-02T13:50:05.072Z,72.21
2023-04-02T13:52:59.133Z,72.40
2023-04-02T13:55:48.617Z,71.98
2023-04-02T13:58:37.808Z,71.80
2023-04-02T14:01:27.686Z,71.70
2023-04-02T14:04:22.849Z,71.79
2023-04-02T14:07:30.079Z,71.69
2023-04-02T14:10:32.400Z,71.17
2023-04-02T14:13:45.051Z,70.92
2023-04-02T14:16:48.845Z,71.23
2023-04-02T14:19:55.537Z,70.91
2023-04-02T14:23:02.652Z,70.91
2023-04-02T14:25:58.125Z,70.54
2023-04-02T14:28:58.113Z,70.61
2023-04-02T14:31:54.593Z,70.39
2023-04-02T14:34:51.754Z,70.26
2023-04-02T14:37:47.237Z,70.14
2023-04-02T14:40:40.477Z,70.02
2023-04-02T14:43:39.309Z,69.48
2023-04-02T14:46:29.924Z,69.39
2023-04-02T14:49:25.574Z,69.30
2023-04-02T14:52:18.333Z,69.04
2023-04-02T14:55:16.276Z,69.15
2023-04-02T14:58:10.836Z,69.00
2023-04-02T15:01:05.105Z,68.93
2023-04-02T15:03:59.445Z,68.61
2023-04-02T15:06:52.940Z,68.57
2023-04-02T15:09:46.205Z,68.41
2023-04-02T15:12:38.814Z,68.23
2023-04-02T15:15:41.367Z,68.21
2023-04-02T15:18:31.408Z,68.26
2023-04-02T15:21:55.968Z,68.45
2023-04-02T15:24:57.353Z,68.38
2023-04-02T15:27:58.939Z,68.10
2023-04-02T15:30:52.680Z,68.11
2023-04-02T15:33:51.327Z,68.64
2023-04-02T15:37:08.854Z,68.28
2023-04-02T15:40:09.011Z,68.45
2023-04-02T15:43:08.843Z,68.74
2023-04-02T15:46:13.262Z,68.61
2023-04-02T15:49:16.398Z,68.24
2023-04-02T15:52:10.742Z,68.85
2023-04-02T15:55:13.318Z,68.72
2023-04-02T15:58:25.224Z,68.79
2023-04-02T16:01:25.872Z,68.99
2023-04-02T16:04:35.683Z,69.00
2023-04-02T16:07:47.842Z,69.01
2023-04-02T16:10:42.677Z,68.85
2023-04-02T16:13:34.292Z,68.99
2023-04-02T16:16:31.846Z,69.29
2023-04-02T16:19:26.933Z,69.20
2023-04-02T16:22:21.919Z,68.91
2023-04-02T16:25:19.206Z,69.02
2023-04-02T16:28:17.579Z,69.09
2023-04-02T16:31:11.720Z,69.13
2023-04-02T16:34:08.980Z,69.21
2023-04-02T16:37:06.261Z,69.06
2023-04-02T16:40:05.653Z,68.63
2023-04-02T16:43:01.442Z,68.72
2023-04-02T16:45:57.439Z,68.61
2023-04-02T16:48:52.921Z,68.62
2023-04-02T16:51:50.890Z,68.51
2023-04-02T16:54:48.959Z,68.37
2023-04-02T16:57:49.177Z,68.42
2023-04-02T17:00:43.441Z,68.16
2023-04-02T17:03:51.125Z,68.05
2023-04-02T17:06:43.301Z,67.95
2023-04-02T17:09:39.440Z,67.65
2023-04-02T17:12:40.025Z,67.62
2023-04-02T17:15:34.236Z,67.55
2023-04-02T17:18:26.462Z,67.08
2023-04-02T17:21:18.744Z,67.09
2023-04-02T17:24:19.092Z,66.74
2023-04-02T17:27:17.579Z,66.72
2023-04-02T17:30:17.506Z,66.66
2023-04-02T17:33:12.388Z,66.20
2023-04-02T17:36:25.214Z,65.75
2023-04-02T17:39:21.243Z,65.58
2023-04-02T17:42:16.576Z,65.24
2023-04-02T17:45:15.910Z,65.19
2023-04-02T17:48:13.196Z,64.89
2023-04-02T17:51:17.348Z,64.68
2023-04-02T17:54:23.044Z,64.41
2023-04-02T17:57:35.619Z,64.31
2023-04-02T18:00:39.804Z,63.96
2023-04-02T18:03:55.217Z,63.98
2023-04-02T18:06:53.428Z,63.46
2023-04-02T18:09:47.720Z,63.18
2023-04-02T18:12:55.676Z,63.32
2023-04-02T18:16:03.002Z,62.91
2023-04-02T18:19:07.151Z,62.72
2023-04-02T18:22:00.779Z,62.53
2023-04-02T18:25:25.036Z,62.42
2023-04-02T18:28:39.724Z,62.35
2023-04-02T18:31:39.107Z,62.33
2023-04-02T18:34:40.409Z,62.16
2023-04-02T18:37:38.327Z,62.03
2023-04-02T18:40:36.747Z,62.09
2023-04-02T18:43:38.193Z,61.87
2023-04-02T18:46:40.767Z,61.81
2023-04-02T18:49:36.804Z,61.90
2023-04-02T18:52:27.037Z,61.68
2023-04-02T18:55:19.891Z,61.76
2023-04-02T18:58:14.712Z,61.68
2023-04-02T19:01:06.941Z,61.76
2023-04-02T19:04:02.407Z,61.67
2023-04-02T19:06:58.550Z,61.69
2023-04-02T19:09:49.897Z,61.66
2023-04-02T19:12:39.085Z,61.74
2023-04-02T19:15:35.660Z,61.70
2023-04-02T19:18:37.148Z,61.74
2023-04-02T19:21:36.349Z,61.82
2023-04-02T19:24:41.709Z,61.92
2023-04-02T19:27:38.227Z,61.94
2023-04-02T19:30:38.786Z,62.08
2023-04-02T19:33:44.525Z,62.03
2023-04-02T19:36:45.867Z,62.16
2023-04-02T19:39:54.511Z,62.15
2023-04-02T19:42:46.024Z,62.19
2023-04-02T19:45:38.629Z,62.28
2023-04-02T19:48:31.784Z,62.40
2023-04-02T19:51:21.713Z,62.35
2023-04-02T19:54:13.827Z,62.81
2023-04-02T19:57:04.073Z,62.54
2023-04-02T19:59:54.854Z,62.56
2023-04-02T20:02:43.525Z,62.60
2023-04-02T20:05:33.148Z,62.56
2023-04-02T20:08:22.268Z,62.45
2023-04-02T20:11:12.421Z,62.48
2023-04-02T20:14:01.591Z,62.54
2023-04-02T20:16:50.274Z,62.51
2023-04-02T20:19:39.742Z,62.40
2023-04-02T20:22:28.867Z,62.30
2023-04-02T20:25:17.618Z,62.32
2023-04-02T20:28:07.743Z,62.40
2023-04-02T20:31:07.888Z,62.39
2023-04-02T20:33:57.362Z,62.27
2023-04-02T20:36:47.104Z,62.30
2023-04-02T20:39:35.847Z,62.22
2023-04-02T20:42:25.456Z,62.35
2023-04-02T20:45:15.856Z,62.26
2023-04-02T20:48:05.705Z,62.20
2023-04-02T20:50:55.508Z,62.47
2023-04-02T20:53:44.793Z,62.33
2023-04-02T20:56:33.439Z,62.45
2023-04-02T20:59:22.924Z,62.54
2023-04-02T21:02:13.269Z,62.51
2023-04-02T21:05:03.306Z,62.44
2023-04-02T21:07:52.552Z,62.38
2023-04-02T21:10:41.865Z,62.14
2023-04-02T21:13:31.075Z,62.36
2023-04-02T21:16:22.841Z,62.25
2023-04-02T21:19:13.200Z,62.14
2023-04-02T21:22:03.812Z,62.07
2023-04-02T21:24:52.567Z,62.21
2023-04-02T21:27:41.738Z,62.36
2023-04-02T21:30:30.507Z,62.27
2023-04-02T21:33:21.029Z,62.33
2023-04-02T21:36:13.213Z,62.07
2023-04-02T21:39:05.408Z,62.02
2023-04-02T21:41:54.815Z,62.17
2023-04-02T21:44:44.050Z,62.28
2023-04-02T21:47:32.790Z,62.28
2023-04-02T21:50:22.355Z,62.24
2023-04-02T21:53:12.525Z,62.12
2023-04-02T21:56:03.112Z,61.97
2023-04-02T21:58:52.693Z,62.11
2023-04-02T22:01:43.886Z,62.05
2023-04-02T22:04:33.532Z,61.77
2023-04-02T22:07:22.829Z,61.80
2023-04-02T22:10:13.022Z,61.64
2023-04-02T22:13:02.846Z,61.61
2023-04-02T22:15:51.528Z,61.61
2023-04-02T22:18:42.743Z,61.52
2023-04-02T22:21:33.029Z,61.39
2023-04-02T22:24:22.941Z,61.45
2023-04-02T22:27:14.516Z,61.39
2023-04-02T22:30:03.539Z,61.46
2023-04-02T22:32:52.289Z,61.10
2023-04-02T22:35:41.870Z,61.01
2023-04-02T22:38:31.742Z,61.18
2023-04-02T22:41:22.683Z,61.05
2023-04-02T22:44:15.904Z,60.92
2023-04-02T22:47:05.346Z,60.86
2023-04-02T22:49:53.980Z,60.93
2023-04-02T22:52:43.615Z,60.90
2023-04-02T22:55:32.314Z,60.70
2023-04-02T22:58:24.446Z,60.59
2023-04-02T23:01:17.880Z,60.67
2023-04-02T23:04:07.453Z,60.57
2023-04-02T23:06:56.254Z,60.60
2023-04-02T23:09:46.064Z,60.61
2023-04-02T23:12:34.762Z,60.56
2023-04-02T23:15:24.276Z,60.55
2023-04-02T23:18:14.307Z,60.27
2023-04-02T23:21:05.209Z,60.32
2023-04-02T23:23:54.991Z,60.29
2023-04-02T23:26:43.681Z,60.39
2023-04-02T23:29:32.781Z,60.45
2023-04-02T23:32:21.512Z,60.29
2023-04-02T23:35:12.700Z,60.57
2023-04-02T23:38:01.365Z,60.42
2023-04-02T23:40:51.149Z,60.46
2023-04-02T23:43:41.007Z,60.34
2023-04-02T23:46:31.593Z,60.52
2023-04-02T23:49:21.127Z,60.56
2023-04-02T23:52:11.691Z,60.50
2023-04-02T23:55:00.433Z,60.60
2023-04-02T23:57:49.544Z,60.63
